SILO ALERT LOG
| Silo ID | Alert Type | Alert Message | Silo Type | Points | Depth (mm) | Strength | Temperature (°C) | Humidity (%) | Height (mm) | Volume (㎥) | Weight (t) | Flag | Time |
|---|---|---|---|---|---|---|---|---|---|---|---|---|---|
| DJSAD17 | Humidity | 습도센서 측정값이 80% 초과 | 평 | 442 | 3134 | 4821 | 2.9 | 80.7 | 4445 | 442.667 | 279.854 | 0 | 2024-01-11 08:39:30.000 |
| DJDJD01 | Temperature | 온도센서 측정값이 0도 미만 | 평 | 86 | 9497 | 3899 | -0.5 | 80.8 | -1817 | -220.136 | 0 | 0 | 2024-01-11 08:39:30.000 |
| DJDJD01 | Humidity | 습도센서 측정값이 80% 초과 | 평 | 86 | 9497 | 3899 | -0.5 | 80.8 | -1817 | -220.136 | 0 | 0 | 2024-01-11 08:39:30.000 |
| DJHNR04 | Temperature | 온도센서 측정값이 0도 미만 | 호퍼 | 0 | 15500 | 5022 | -0.6 | 78.7 | -119 | 0 | 0 | 29 | 2024-01-11 08:39:30.000 |
| DJHNR14 | Temperature | 온도센서 측정값이 0도 미만 | 호퍼 | 27 | 2867 | 4498 | -2.5 | 73.3 | 7512 | 108.094 | 68.337 | 11 | 2024-01-11 08:39:29.000 |
| DJHNR03 | Temperature | 온도센서 상태 이상 | 호퍼 | 0 | 15500 | 0 | -999 | -999 | -119 | 0 | 0 | 31 | 2024-01-11 08:39:24.000 |
| DJSSD12 | Temperature | 온도센서 상태 이상 | 호퍼 | 0 | 11350 | 0 | -999 | -999 | -120 | 0 | 0 | 31 | 2024-01-11 08:39:24.000 |
| DJHNR12 | Temperature | 온도센서 측정값이 0도 미만 | 호퍼 | 0 | 10500 | 0 | -3.4 | 82.8 | -120 | 0 | 0 | 31 | 2024-01-11 08:39:22.000 |
| DJHNR12 | Humidity | 습도센서 측정값이 80% 초과 | 호퍼 | 0 | 10500 | 0 | -3.4 | 82.8 | -120 | 0 | 0 | 31 | 2024-01-11 08:39:22.000 |
| DJSAD03 | Humidity | 습도센서 측정값이 80% 초과 | 평 | 445 | 1664 | 6058 | 1.1 | 84.5 | 7115 | 294.538 | 186.207 | 0 | 2024-01-11 07:39:40.000 |
| DJSAD01 | Humidity | 습도센서 측정값이 80% 초과 | 평 | 416 | 1600 | 7139 | 0.3 | 88.7 | 7179 | 297.212 | 187.897 | 0 | 2024-01-11 07:39:40.000 |
| DJDJD03 | Humidity | 습도센서 측정값이 80% 초과 | 평 | 52 | 5566 | 5139 | 1.2 | 81.1 | 2113 | 256.058 | 161.88 | 0 | 2024-01-11 07:39:40.000 |
| DJSAD02 | Humidity | 습도센서 측정값이 80% 초과 | 평 | 381 | 1127 | 4314 | 1 | 88.4 | 7652 | 316.77 | 200.262 | 11 | 2024-01-11 07:39:39.000 |
| DJSAD08 | Humidity | 습도센서 측정값이 80% 초과 | 평 | 0 | 7700 | 3872 | 12.5 | 81.2 | -120 | -17.075 | 0 | 12 | 2024-01-11 07:39:38.000 |
| DJHNR08 | Temperature | 온도센서 측정값이 0도 미만 | 평 | 372 | 5417 | 2142 | -0.6 | 68.4 | 2262 | 321.975 | 203.552 | 11 | 2024-01-11 07:39:37.000 |
| DJSAD11 | Humidity | 습도센서 측정값이 80% 초과 | 평 | 336 | 1626 | 3272 | 0.5 | 80.6 | 5953 | 847.19 | 535.593 | 11 | 2024-01-11 07:39:35.000 |
| DJSSD05 | Temperature | 온도센서 측정값이 0도 미만 | 평 | 848 | 2543 | 5045 | -45.4 | 43.7 | 5536 | 770.606 | 487.177 | 0 | 2024-01-11 07:39:33.000 |
| DJHNR01 | Humidity | 습도센서 측정값이 80% 초과 | 호퍼 | 471 | 4306 | 5037 | 3 | 99.9 | 11073 | 472.911 | 298.974 | 13 | 2024-01-11 07:39:33.000 |
| DJSSD04 | Temperature | 온도센서 상태 이상 | 평 | 0 | 8200 | 0 | -999 | -999 | -120 | -16.702 | 0 | 31 | 2024-01-11 07:39:33.000 |
| DJSAD12 | Humidity | 습도센서 측정값이 80% 초과 | 평 | 0 | 7700 | 0 | 2.2 | 86.7 | -120 | -17.075 | 0 | 31 | 2024-01-11 07:39:33.000 |
[첫 페이지] [10000] [10001] [10002] [10003] 10004 [10005] [10006] [10007] [10008] [마지막 페이지]